sensor_id;sensor_type;location;lat;lon;timestamp;pressure;altitude;pressure_sealevel;temperature;humidity
18985;BME280;9626;52.552;13.436;2024-03-23T00:56:24;100234.28;;;7.98;100.00
18985;BME280;9626;52.552;13.436;2024-03-23T00:58:50;100240.22;;;8.10;100.00
18985;BME280;9626;52.552;13.436;2024-03-23T01:01:16;100226.09;;;8.15;100.00
18985;BME280;9626;52.552;13.436;2024-03-23T01:03:42;100211.94;;;8.19;100.00
18985;BME280;9626;52.552;13.436;2024-03-23T01:06:08;100222.41;;;8.25;100.00
18985;BME280;9626;52.552;13.436;2024-03-23T01:08:34;100225.03;;;8.26;100.00
18985;BME280;9626;52.552;13.436;2024-03-23T01:11:00;100222.44;;;8.22;100.00
18985;BME280;9626;52.552;13.436;2024-03-23T01:13:27;100230.50;;;8.14;100.00
18985;BME280;9626;52.552;13.436;2024-03-23T01:15:55;100212.03;;;8.12;100.00
18985;BME280;9626;52.552;13.436;2024-03-23T01:18:22;100205.03;;;8.13;100.00
18985;BME280;9626;52.552;13.436;2024-03-23T01:20:48;100207.66;;;8.13;100.00
18985;BME280;9626;52.552;13.436;2024-03-23T01:23:14;100213.81;;;8.12;100.00
18985;BME280;9626;52.552;13.436;2024-03-23T01:25:40;100212.09;;;8.09;100.00
18985;BME280;9626;52.552;13.436;2024-03-23T01:28:07;100209.75;;;7.94;100.00
18985;BME280;9626;52.552;13.436;2024-03-23T01:30:33;100201.88;;;7.91;100.00
18985;BME280;9626;52.552;13.436;2024-03-23T01:33:00;100201.88;;;7.91;100.00
18985;BME280;9626;52.552;13.436;2024-03-23T01:35:26;100195.69;;;7.92;100.00
18985;BME280;9626;52.552;13.436;2024-03-23T01:37:52;100189.53;;;7.93;100.00
18985;BME280;9626;52.552;13.436;2024-03-23T01:40:19;100190.44;;;7.90;100.00
18985;BME280;9626;52.552;13.436;2024-03-23T01:45:30;100167.28;;;8.09;100.00
18985;BME280;9626;52.552;13.436;2024-03-23T01:47:56;100155.00;;;8.07;100.00
18985;BME280;9626;52.552;13.436;2024-03-23T01:50:22;100153.22;;;8.09;100.00
18985;BME280;9626;52.552;13.436;2024-03-23T01:52:50;100148.56;;;8.23;100.00
18985;BME280;9626;52.552;13.436;2024-03-23T01:55:16;100150.25;;;8.29;100.00
18985;BME280;9626;52.552;13.436;2024-03-23T01:57:42;100147.56;;;8.31;100.00
18985;BME280;9626;52.552;13.436;2024-03-23T02:00:08;100139.53;;;8.37;100.00
18985;BME280;9626;52.552;13.436;2024-03-23T02:02:36;100142.19;;;8.35;100.00
18985;BME280;9626;52.552;13.436;2024-03-23T02:05:02;100142.41;;;8.24;100.00
18985;BME280;9626;52.552;13.436;2024-03-23T02:07:28;100134.66;;;8.17;100.00
18985;BME280;9626;52.552;13.436;2024-03-23T02:09:54;100135.31;;;8.28;100.00
18985;BME280;9626;52.552;13.436;2024-03-23T02:12:20;100130.09;;;8.25;100.00
18985;BME280;9626;52.552;13.436;2024-03-23T02:14:47;100129.28;;;8.21;100.00
18985;BME280;9626;52.552;13.436;2024-03-23T02:17:13;100129.50;;;8.09;100.00
18985;BME280;9626;52.552;13.436;2024-03-23T02:19:39;100141.03;;;8.03;100.00
18985;BME280;9626;52.552;13.436;2024-03-23T02:22:05;100135.94;;;7.92;100.00
18985;BME280;9626;52.552;13.436;2024-03-23T02:24:31;100141.41;;;7.82;100.00
18985;BME280;9626;52.552;13.436;2024-03-23T02:26:57;100137.97;;;7.76;100.00
18985;BME280;9626;52.552;13.436;2024-03-23T02:29:23;100131.53;;;7.93;100.00
18985;BME280;9626;52.552;13.436;2024-03-23T02:31:49;100139.25;;;8.04;100.00
18985;BME280;9626;52.552;13.436;2024-03-23T02:34:15;100131.25;;;8.08;100.00
18985;BME280;9626;52.552;13.436;2024-03-23T02:36:41;100112.91;;;8.02;100.00
18985;BME280;9626;52.552;13.436;2024-03-23T02:39:07;100107.81;;;7.93;100.00
18985;BME280;9626;52.552;13.436;2024-03-23T02:41:33;100106.06;;;7.92;100.00
18985;BME280;9626;52.552;13.436;2024-03-23T02:43:59;100098.03;;;8.00;100.00
18985;BME280;9626;52.552;13.436;2024-03-23T02:46:25;100098.16;;;7.93;100.00
18985;BME280;9626;52.552;13.436;2024-03-23T02:48:51;100092.13;;;7.87;100.00
18985;BME280;9626;52.552;13.436;2024-03-23T02:51:17;100089.47;;;7.85;100.00
18985;BME280;9626;52.552;13.436;2024-03-23T02:53:43;100087.66;;;7.89;100.00
18985;BME280;9626;52.552;13.436;2024-03-23T02:56:09;100087.84;;;7.79;100.00
18985;BME280;9626;52.552;13.436;2024-03-23T02:58:35;100090.63;;;7.72;100.00
18985;BME280;9626;52.552;13.436;2024-03-23T03:01:01;100092.34;;;7.73;100.00
18985;BME280;9626;52.552;13.436;2024-03-23T03:03:27;100092.34;;;7.73;100.00
18985;BME280;9626;52.552;13.436;2024-03-23T03:05:56;100095.94;;;7.67;100.00
18985;BME280;9626;52.552;13.436;2024-03-23T03:08:22;100089.00;;;7.63;100.00
18985;BME280;9626;52.552;13.436;2024-03-23T03:10:48;100082.03;;;7.59;100.00
18985;BME280;9626;52.552;13.436;2024-03-23T03:13:14;100080.13;;;7.70;100.00
18985;BME280;9626;52.552;13.436;2024-03-23T03:15:43;100085.38;;;7.70;100.00
18985;BME280;9626;52.552;13.436;2024-03-23T03:18:09;100087.97;;;7.73;100.00
18985;BME280;9626;52.552;13.436;2024-03-23T03:20:39;100076.66;;;7.67;100.00
18985;BME280;9626;52.552;13.436;2024-03-23T03:23:08;100071.41;;;7.65;100.00
18985;BME280;9626;52.552;13.436;2024-03-23T03:25:35;100071.44;;;7.64;100.00
18985;BME280;9626;52.552;13.436;2024-03-23T03:28:01;100074.19;;;7.56;100.00
18985;BME280;9626;52.552;13.436;2024-03-23T03:30:27;100072.50;;;7.52;100.00
18985;BME280;9626;52.552;13.436;2024-03-23T03:32:53;100071.66;;;7.50;100.00
18985;BME280;9626;52.552;13.436;2024-03-23T03:35:20;100057.50;;;7.57;100.00
18985;BME280;9626;52.552;13.436;2024-03-23T03:37:46;100052.97;;;7.65;100.00
18985;BME280;9626;52.552;13.436;2024-03-23T03:40:13;100050.09;;;7.77;100.00
18985;BME280;9626;52.552;13.436;2024-03-23T03:42:41;100050.16;;;7.73;100.00
18985;BME280;9626;52.552;13.436;2024-03-23T03:45:07;100060.16;;;7.55;100.00
18985;BME280;9626;52.552;13.436;2024-03-23T03:47:33;100050.53;;;7.53;100.00
18985;BME280;9626;52.552;13.436;2024-03-23T03:49:59;100040.16;;;7.43;100.00
18985;BME280;9626;52.552;13.436;2024-03-23T03:52:26;100039.84;;;7.60;100.00
18985;BME280;9626;52.552;13.436;2024-03-23T03:55:00;100043.63;;;7.45;100.00
18985;BME280;9626;52.552;13.436;2024-03-23T03:57:28;100047.31;;;7.35;100.00
18985;BME280;9626;52.552;13.436;2024-03-23T03:59:54;100043.00;;;7.31;100.00
18985;BME280;9626;52.552;13.436;2024-03-23T04:02:20;100032.53;;;7.28;100.00
18985;BME280;9626;52.552;13.436;2024-03-23T04:04:46;100036.88;;;7.29;100.00
18985;BME280;9626;52.552;13.436;2024-03-23T04:07:12;100034.41;;;7.18;100.00
18985;BME280;9626;52.552;13.436;2024-03-23T04:09:38;100023.31;;;6.99;100.00
18985;BME280;9626;52.552;13.436;2024-03-23T04:12:04;100026.53;;;7.17;100.00
18985;BME280;9626;52.552;13.436;2024-03-23T04:14:31;100024.06;;;7.07;100.00
18985;BME280;9626;52.552;13.436;2024-03-23T04:16:57;100016.81;;;7.22;100.00
18985;BME280;9626;52.552;13.436;2024-03-23T04:19:23;100013.22;;;7.26;100.00
18985;BME280;9626;52.552;13.436;2024-03-23T04:21:49;100029.84;;;7.31;100.00
18985;BME280;9626;52.552;13.436;2024-03-23T04:24:15;100029.81;;;7.33;100.00
18985;BME280;9626;52.552;13.436;2024-03-23T04:26:42;100033.28;;;7.36;100.00
18985;BME280;9626;52.552;13.436;2024-03-23T04:29:08;100024.38;;;7.42;100.00
18985;BME280;9626;52.552;13.436;2024-03-23T04:31:34;100020.03;;;7.39;100.00
18985;BME280;9626;52.552;13.436;2024-03-23T04:34:01;100018.13;;;7.48;100.00
18985;BME280;9626;52.552;13.436;2024-03-23T04:36:27;100015.56;;;7.44;100.00
18985;BME280;9626;52.552;13.436;2024-03-23T04:38:53;100009.44;;;7.42;100.00
18985;BME280;9626;52.552;13.436;2024-03-23T04:41:19;100011.19;;;7.43;100.00
18985;BME280;9626;52.552;13.436;2024-03-23T04:43:45;100007.81;;;7.35;100.00
18985;BME280;9626;52.552;13.436;2024-03-23T04:46:11;100001.66;;;7.36;100.00
18985;BME280;9626;52.552;13.436;2024-03-23T04:48:37;99994.78;;;7.26;100.00
18985;BME280;9626;52.552;13.436;2024-03-23T04:51:03;100001.88;;;7.22;100.00
18985;BME280;9626;52.552;13.436;2024-03-23T04:53:29;99984.31;;;7.23;100.00
18985;BME280;9626;52.552;13.436;2024-03-23T04:55:58;99978.13;;;7.27;100.00
18985;BME280;9626;52.552;13.436;2024-03-23T04:58:25;99976.28;;;7.32;100.00
18985;BME280;9626;52.552;13.436;2024-03-23T05:00:54;99976.28;;;7.31;100.00
18985;BME280;9626;52.552;13.436;2024-03-23T05:03:21;99970.97;;;7.34;100.00
18985;BME280;9626;52.552;13.436;2024-03-23T05:05:48;99976.28;;;7.32;100.00
18985;BME280;9626;52.552;13.436;2024-03-23T05:08:15;99970.88;;;7.38;100.00
18985;BME280;9626;52.552;13.436;2024-03-23T05:10:44;99978.84;;;7.35;100.00
18985;BME280;9626;52.552;13.436;2024-03-23T05:13:10;99969.41;;;7.22;100.00
18985;BME280;9626;52.552;13.436;2024-03-23T05:15:36;99968.78;;;7.09;100.00
18985;BME280;9626;52.552;13.436;2024-03-23T05:18:02;99978.63;;;6.96;100.00
18985;BME280;9626;52.552;13.436;2024-03-23T05:20:28;99964.66;;;6.91;100.00
18985;BME280;9626;52.552;13.436;2024-03-23T05:22:55;99967.28;;;6.91;100.00
18985;BME280;9626;52.552;13.436;2024-03-23T05:25:21;99966.72;;;6.70;100.00
18985;BME280;9626;52.552;13.436;2024-03-23T05:27:47;99966.88;;;6.61;100.00
18985;BME280;9626;52.552;13.436;2024-03-23T05:30:13;99967.03;;;6.49;100.00
18985;BME280;9626;52.552;13.436;2024-03-23T05:32:39;99960.97;;;6.45;100.00
18985;BME280;9626;52.552;13.436;2024-03-23T05:35:07;99968.94;;;6.39;100.00
18985;BME280;9626;52.552;13.436;2024-03-23T05:37:33;99960.44;;;6.20;100.00
18985;BME280;9626;52.552;13.436;2024-03-23T05:40:00;99958.63;;;6.25;100.00
18985;BME280;9626;52.552;13.436;2024-03-23T05:42:26;99958.66;;;6.22;100.00
18985;BME280;9626;52.552;13.436;2024-03-23T05:44:55;99953.44;;;6.19;100.00
18985;BME280;9626;52.552;13.436;2024-03-23T05:47:21;99942.91;;;6.19;100.00
18985;BME280;9626;52.552;13.436;2024-03-23T05:49:47;99947.38;;;6.14;100.00
18985;BME280;9626;52.552;13.436;2024-03-23T05:52:13;99946.47;;;6.15;100.00
18985;BME280;9626;52.552;13.436;2024-03-23T05:54:39;99941.03;;;6.27;100.00
18985;BME280;9626;52.552;13.436;2024-03-23T05:57:05;99931.41;;;6.28;100.00
18985;BME280;9626;52.552;13.436;2024-03-23T05:59:33;99926.03;;;6.37;100.00
18985;BME280;9626;52.552;13.436;2024-03-23T06:01:59;99933.00;;;6.41;100.00
18985;BME280;9626;52.552;13.436;2024-03-23T06:04:25;99939.94;;;6.45;100.00
18985;BME280;9626;52.552;13.436;2024-03-23T06:06:51;99925.88;;;6.48;100.00
18985;BME280;9626;52.552;13.436;2024-03-23T06:09:20;99920.44;;;6.60;100.00
18985;BME280;9626;52.552;13.436;2024-03-23T06:11:46;99917.41;;;6.85;100.00
18985;BME280;9626;52.552;13.436;2024-03-23T06:14:12;99913.88;;;6.86;100.00
18985;BME280;9626;52.552;13.436;2024-03-23T06:16:38;99906.81;;;6.88;100.00
18985;BME280;9626;52.552;13.436;2024-03-23T06:19:04;99896.19;;;6.92;100.00
18985;BME280;9626;52.552;13.436;2024-03-23T06:21:32;99901.47;;;6.94;100.00
18985;BME280;9626;52.552;13.436;2024-03-23T06:23:59;99889.97;;;6.98;100.00
18985;BME280;9626;52.552;13.436;2024-03-23T06:26:25;99890.72;;;7.06;100.00
18985;BME280;9626;52.552;13.436;2024-03-23T06:28:51;99886.34;;;7.05;100.00
18985;BME280;9626;52.552;13.436;2024-03-23T06:31:18;99886.41;;;7.02;100.00
18985;BME280;9626;52.552;13.436;2024-03-23T06:33:44;99889.00;;;7.04;100.00
18985;BME280;9626;52.552;13.436;2024-03-23T06:36:10;99887.97;;;7.11;100.00
18985;BME280;9626;52.552;13.436;2024-03-23T06:38:37;99885.22;;;7.19;100.00
18985;BME280;9626;52.552;13.436;2024-03-23T06:41:07;99885.97;;;7.24;100.00
18985;BME280;9626;52.552;13.436;2024-03-23T06:43:33;99882.72;;;7.11;100.00
18985;BME280;9626;52.552;13.436;2024-03-23T06:45:59;99872.25;;;7.08;100.00
18985;BME280;9626;52.552;13.436;2024-03-23T06:48:25;99860.84;;;7.07;100.00
18985;BME280;9626;52.552;13.436;2024-03-23T06:50:56;99862.56;;;7.08;100.00
18985;BME280;9626;52.552;13.436;2024-03-23T06:53:22;99862.41;;;7.18;100.00
18985;BME280;9626;52.552;13.436;2024-03-23T06:55:52;99863.13;;;7.26;100.00
18985;BME280;9626;52.552;13.436;2024-03-23T06:58:23;99862.16;;;7.30;100.00
18985;BME280;9626;52.552;13.436;2024-03-23T07:00:49;99849.84;;;7.32;100.00
18985;BME280;9626;52.552;13.436;2024-03-23T07:03:18;99849.84;;;7.31;100.00
18985;BME280;9626;52.552;13.436;2024-03-23T07:05:44;99852.47;;;7.34;100.00
18985;BME280;9626;52.552;13.436;2024-03-23T07:08:12;99846.31;;;7.33;100.00
18985;BME280;9626;52.552;13.436;2024-03-23T07:10:41;99841.00;;;7.36;100.00
18985;BME280;9626;52.552;13.436;2024-03-23T07:13:07;99838.38;;;7.35;100.00
18985;BME280;9626;52.552;13.436;2024-03-23T07:15:33;99838.44;;;7.32;100.00
18985;BME280;9626;52.552;13.436;2024-03-23T07:17:59;99847.97;;;7.37;100.00
18985;BME280;9626;52.552;13.436;2024-03-23T07:20:25;99835.81;;;7.32;100.00
18985;BME280;9626;52.552;13.436;2024-03-23T07:22:52;99843.78;;;7.28;100.00
18985;BME280;9626;52.552;13.436;2024-03-23T07:25:18;99849.91;;;7.29;100.00
18985;BME280;9626;52.552;13.436;2024-03-23T07:27:44;99843.81;;;7.27;100.00
18985;BME280;9626;52.552;13.436;2024-03-23T07:30:10;99835.03;;;7.26;100.00
18985;BME280;9626;52.552;13.436;2024-03-23T07:32:36;99832.38;;;7.28;100.00
18985;BME280;9626;52.552;13.436;2024-03-23T07:35:02;99832.22;;;7.36;100.00
18985;BME280;9626;52.552;13.436;2024-03-23T07:37:29;99824.16;;;7.43;100.00
18985;BME280;9626;52.552;13.436;2024-03-23T07:39:55;99831.06;;;7.49;100.00
18985;BME280;9626;52.552;13.436;2024-03-23T07:42:21;99829.22;;;7.54;100.00
18985;BME280;9626;52.552;13.436;2024-03-23T07:44:48;99831.81;;;7.56;100.00
18985;BME280;9626;52.552;13.436;2024-03-23T07:47:14;99819.72;;;7.45;100.00
18985;BME280;9626;52.552;13.436;2024-03-23T07:49:40;99826.72;;;7.47;100.00
18985;BME280;9626;52.552;13.436;2024-03-23T07:52:06;99826.72;;;7.47;100.00
18985;BME280;9626;52.552;13.436;2024-03-23T07:54:33;99822.34;;;7.45;100.00
18985;BME280;9626;52.552;13.436;2024-03-23T07:57:00;99815.44;;;7.40;100.00
18985;BME280;9626;52.552;13.436;2024-03-23T07:59:26;99821.72;;;7.34;100.00
18985;BME280;9626;52.552;13.436;2024-03-23T08:01:52;99814.78;;;7.30;100.00
18985;BME280;9626;52.552;13.436;2024-03-23T08:04:18;99814.09;;;7.20;100.00
18985;BME280;9626;52.552;13.436;2024-03-23T08:06:44;99812.34;;;7.19;100.00
18985;BME280;9626;52.552;13.436;2024-03-23T08:09:13;99820.09;;;7.27;100.00
18985;BME280;9626;52.552;13.436;2024-03-23T08:11:39;99808.72;;;7.25;100.00
18985;BME280;9626;52.552;13.436;2024-03-23T08:14:05;99806.16;;;7.22;100.00
18985;BME280;9626;52.552;13.436;2024-03-23T08:16:31;99806.22;;;7.19;100.00
18985;BME280;9626;52.552;13.436;2024-03-23T08:18:57;99809.69;;;7.21;100.00
18985;BME280;9626;52.552;13.436;2024-03-23T08:21:23;99814.88;;;7.24;100.00
18985;BME280;9626;52.552;13.436;2024-03-23T08:23:51;99805.13;;;7.29;100.00
18985;BME280;9626;52.552;13.436;2024-03-23T08:26:17;99801.09;;;7.11;100.00
18985;BME280;9626;52.552;13.436;2024-03-23T08:28:46;99788.00;;;7.08;100.00
18985;BME280;9626;52.552;13.436;2024-03-23T08:31:13;99794.13;;;7.08;100.00
18985;BME280;9626;52.552;13.436;2024-03-23T08:33:40;99789.84;;;7.03;100.00
18985;BME280;9626;52.552;13.436;2024-03-23T08:36:09;99790.09;;;6.90;100.00
18985;BME280;9626;52.552;13.436;2024-03-23T08:38:38;99794.66;;;6.81;100.00
18985;BME280;9626;52.552;13.436;2024-03-23T08:41:12;99793.78;;;6.82;100.00
18985;BME280;9626;52.552;13.436;2024-03-23T08:43:41;99789.41;;;6.81;100.00
18985;BME280;9626;52.552;13.436;2024-03-23T08:46:11;99784.09;;;6.82;100.00
18985;BME280;9626;52.552;13.436;2024-03-23T08:48:43;99792.06;;;6.79;100.00
18985;BME280;9626;52.552;13.436;2024-03-23T08:51:14;99788.53;;;6.79;100.00
18985;BME280;9626;52.552;13.436;2024-03-23T08:53:41;99793.03;;;6.73;100.00
18985;BME280;9626;52.552;13.436;2024-03-23T08:56:08;99790.59;;;6.64;100.00
18985;BME280;9626;52.552;13.436;2024-03-23T08:58:35;99791.34;;;6.69;100.00
18985;BME280;9626;52.552;13.436;2024-03-23T09:01:06;99787.09;;;6.62;100.00
18985;BME280;9626;52.552;13.436;2024-03-23T09:03:32;99789.66;;;6.65;100.00
18985;BME280;9626;52.552;13.436;2024-03-23T09:05:58;99784.38;;;6.68;100.00
18985;BME280;9626;52.552;13.436;2024-03-23T09:08:25;99796.78;;;6.60;100.00
18985;BME280;9626;52.552;13.436;2024-03-23T09:10:52;99794.19;;;6.57;100.00
18985;BME280;9626;52.552;13.436;2024-03-23T09:13:18;99797.84;;;6.48;100.00
18985;BME280;9626;52.552;13.436;2024-03-23T09:15:48;99795.34;;;6.40;100.00
18985;BME280;9626;52.552;13.436;2024-03-23T09:18:14;99805.06;;;6.35;100.00
18985;BME280;9626;52.552;13.436;2024-03-23T09:20:40;99805.97;;;6.34;100.00
18985;BME280;9626;52.552;13.436;2024-03-23T09:23:06;99813.97;;;6.28;100.00
18985;BME280;9626;52.552;13.436;2024-03-23T09:25:36;99817.41;;;6.32;100.00
18985;BME280;9626;52.552;13.436;2024-03-23T09:28:03;99820.97;;;6.29;100.00
18985;BME280;9626;52.552;13.436;2024-03-23T09:30:29;99804.31;;;6.27;100.00
18985;BME280;9626;52.552;13.436;2024-03-23T09:32:55;99811.53;;;6.16;100.00
18985;BME280;9626;52.552;13.436;2024-03-23T09:35:21;99806.31;;;6.13;100.00
18985;BME280;9626;52.552;13.436;2024-03-23T09:37:47;99811.59;;;6.13;100.00
18985;BME280;9626;52.552;13.436;2024-03-23T09:40:13;99815.00;;;6.18;100.00
18985;BME280;9626;52.552;13.436;2024-03-23T09:42:40;99812.19;;;6.30;100.00
18985;BME280;9626;52.552;13.436;2024-03-23T09:45:06;99811.28;;;6.30;100.00
18985;BME280;9626;52.552;13.436;2024-03-23T09:47:36;99824.53;;;6.25;100.00
18985;BME280;9626;52.552;13.436;2024-03-23T09:50:03;99825.56;;;6.15;100.00
18985;BME280;9626;52.552;13.436;2024-03-23T09:52:30;99830.88;;;6.12;100.00
18985;BME280;9626;52.552;13.436;2024-03-23T09:54:57;99825.59;;;6.12;100.00
18985;BME280;9626;52.552;13.436;2024-03-23T09:57:23;99838.78;;;6.10;100.00
18985;BME280;9626;52.552;13.436;2024-03-23T09:59:49;99850.94;;;6.17;100.00
18985;BME280;9626;52.552;13.436;2024-03-23T10:02:16;99844.75;;;6.20;100.00
18985;BME280;9626;52.552;13.436;2024-03-23T10:04:42;99848.44;;;6.09;100.00
18985;BME280;9626;52.552;13.436;2024-03-23T10:07:13;99858.13;;;6.06;100.00
18985;BME280;9626;52.552;13.436;2024-03-23T10:09:39;99871.41;;;5.93;100.00
18985;BME280;9626;52.552;13.436;2024-03-23T10:12:10;99878.50;;;5.87;100.00
18985;BME280;9626;52.552;13.436;2024-03-23T10:14:37;99878.56;;;5.81;100.00
18985;BME280;9626;52.552;13.436;2024-03-23T10:17:21;99889.09;;;5.78;100.00
18985;BME280;9626;52.552;13.436;2024-03-23T10:19:51;99899.72;;;5.68;100.00
18985;BME280;9626;52.552;13.436;2024-03-23T10:22:23;99898.94;;;5.62;100.00
18985;BME280;9626;52.552;13.436;2024-03-23T10:24:52;99879.75;;;5.56;100.00
18985;BME280;9626;52.552;13.436;2024-03-23T10:27:20;99890.94;;;5.74;100.00
18985;BME280;9626;52.552;13.436;2024-03-23T10:29:47;99894.38;;;5.78;100.00
18985;BME280;9626;52.552;13.436;2024-03-23T10:32:17;99890.84;;;5.80;100.00
18985;BME280;9626;52.552;13.436;2024-03-23T10:34:44;99889.94;;;5.83;100.00
18985;BME280;9626;52.552;13.436;2024-03-23T10:37:11;99889.06;;;5.81;100.00
18985;BME280;9626;52.552;13.436;2024-03-23T10:39:39;99901.44;;;5.72;100.00
18985;BME280;9626;52.552;13.436;2024-03-23T10:42:07;99898.06;;;5.61;100.00
18985;BME280;9626;52.552;13.436;2024-03-23T10:44:34;99905.94;;;5.63;100.00
18985;BME280;9626;52.552;13.436;2024-03-23T10:47:01;99899.88;;;5.56;100.00
18985;BME280;9626;52.552;13.436;2024-03-23T10:49:35;99899.91;;;5.53;100.00
18985;BME280;9626;52.552;13.436;2024-03-23T10:52:03;99896.59;;;5.35;100.00
18985;BME280;9626;52.552;13.436;2024-03-23T10:54:30;99905.47;;;5.27;100.00
18985;BME280;9626;52.552;13.436;2024-03-23T10:57:01;99901.13;;;5.19;100.00
18985;BME280;9626;52.552;13.436;2024-03-23T10:59:29;99893.28;;;5.21;100.00
18985;BME280;9626;52.552;13.436;2024-03-23T11:01:59;99888.00;;;5.19;100.00
18985;BME280;9626;52.552;13.436;2024-03-23T11:04:36;99892.44;;;5.16;100.00
18985;BME280;9626;52.552;13.436;2024-03-23T11:09:52;99910.81;;;5.16;100.00
18985;BME280;9626;52.552;13.436;2024-03-23T11:12:26;99902.00;;;5.23;100.00
18985;BME280;9626;52.552;13.436;2024-03-23T11:14:54;99900.13;;;5.33;100.00
18985;BME280;9626;52.552;13.436;2024-03-23T11:17:22;99901.81;;;5.41;100.00
18985;BME280;9626;52.552;13.436;2024-03-23T11:19:58;99906.97;;;5.48;100.00
18985;BME280;9626;52.552;13.436;2024-03-23T11:22:46;99906.94;;;5.52;100.00
18985;BME280;9626;52.552;13.436;2024-03-23T11:25:25;99908.47;;;5.70;100.00
18985;BME280;9626;52.552;13.436;2024-03-23T11:27:52;99906.78;;;5.66;100.00
18985;BME280;9626;52.552;13.436;2024-03-23T11:30:20;99906.63;;;5.77;100.00
18985;BME280;9626;52.552;13.436;2024-03-23T11:32:54;99902.19;;;5.81;100.00
18985;BME280;9626;52.552;13.436;2024-03-23T11:35:27;99897.66;;;5.95;100.00
18985;BME280;9626;52.552;13.436;2024-03-23T11:38:16;99908.03;;;6.07;100.00
18985;BME280;9626;52.552;13.436;2024-03-23T11:40:49;99914.84;;;6.21;100.00
18985;BME280;9626;52.552;13.436;2024-03-23T11:43:20;99905.22;;;6.20;100.00
18985;BME280;9626;52.552;13.436;2024-03-23T11:45:50;99904.88;;;6.43;100.00
18985;BME280;9626;52.552;13.436;2024-03-23T11:48:21;99902.78;;;6.67;100.00
18985;BME280;9626;52.552;13.436;2024-03-23T11:50:49;99907.78;;;6.82;100.00
18985;BME280;9626;52.552;13.436;2024-03-23T11:58:13;99928.53;;;6.99;100.00
18985;BME280;9626;52.552;13.436;2024-03-23T12:00:40;99922.56;;;6.89;100.00
18985;BME280;9626;52.552;13.436;2024-03-23T12:03:06;99920.34;;;6.65;100.00
18985;BME280;9626;52.552;13.436;2024-03-23T12:05:33;99917.88;;;6.54;100.00
18985;BME280;9626;52.552;13.436;2024-03-23T12:08:25;99916.31;;;6.40;100.00
18985;BME280;9626;52.552;13.436;2024-03-23T12:10:52;99916.38;;;6.37;100.00
18985;BME280;9626;52.552;13.436;2024-03-23T12:13:20;99921.53;;;6.45;100.00
18985;BME280;9626;52.552;13.436;2024-03-23T12:15:48;99918.13;;;6.35;100.00
18985;BME280;9626;52.552;13.436;2024-03-23T12:18:15;99921.81;;;6.25;100.00
18985;BME280;9626;52.552;13.436;2024-03-23T12:20:41;99914.81;;;6.24;100.00
18985;BME280;9626;52.552;13.436;2024-03-23T12:23:08;99912.78;;;6.43;100.00
18985;BME280;9626;52.552;13.436;2024-03-23T12:25:38;99907.41;;;6.51;100.00
18985;BME280;9626;52.552;13.436;2024-03-23T12:28:05;99910.94;;;6.50;100.00
18985;BME280;9626;52.552;13.436;2024-03-23T12:30:35;99903.19;;;6.39;100.00
18985;BME280;9626;52.552;13.436;2024-03-23T12:33:02;99909.97;;;6.55;100.00
18985;BME280;9626;52.552;13.436;2024-03-23T12:35:29;99908.03;;;6.65;100.00
18985;BME280;9626;52.552;13.436;2024-03-23T12:37:55;99900.91;;;6.73;100.00
18985;BME280;9626;52.552;13.436;2024-03-23T12:40:21;99894.44;;;6.93;100.00
18985;BME280;9626;52.552;13.436;2024-03-23T12:42:47;99895.84;;;6.61;100.00
18985;BME280;9626;52.552;13.436;2024-03-23T12:45:13;99889.69;;;6.62;100.00
18985;BME280;9626;52.552;13.436;2024-03-23T12:47:40;99891.81;;;6.93;100.00
18985;BME280;9626;52.552;13.436;2024-03-23T12:50:09;99899.94;;;6.77;100.00
18985;BME280;9626;52.552;13.436;2024-03-23T12:52:36;99914.06;;;6.73;100.00
18985;BME280;9626;52.552;13.436;2024-03-23T12:55:05;99892.19;;;6.70;100.00
18985;BME280;9626;52.552;13.436;2024-03-23T12:57:32;99899.06;;;6.79;100.00
18985;BME280;9626;52.552;13.436;2024-03-23T13:00:01;99891.78;;;6.94;100.00
18985;BME280;9626;52.552;13.436;2024-03-23T13:02:34;99888.59;;;7.25;100.00
18985;BME280;9626;52.552;13.436;2024-03-23T13:05:05;99891.63;;;7.51;100.00
18985;BME280;9626;52.552;13.436;2024-03-23T13:07:31;99896.28;;;7.82;100.00
18985;BME280;9626;52.552;13.436;2024-03-23T13:09:57;99907.13;;;7.66;100.00
18985;BME280;9626;52.552;13.436;2024-03-23T13:12:24;99905.13;;;7.34;100.00
18985;BME280;9626;52.552;13.436;2024-03-23T13:14:50;99903.75;;;7.58;100.00
18985;BME280;9626;52.552;13.436;2024-03-23T13:17:16;99912.66;;;7.05;100.00
18985;BME280;9626;52.552;13.436;2024-03-23T13:19:42;99900.63;;;6.90;100.00
18985;BME280;9626;52.552;13.436;2024-03-23T13:22:08;99910.78;;;7.12;100.00
18985;BME280;9626;52.552;13.436;2024-03-23T13:24:38;99901.94;;;7.16;100.00
18985;BME280;9626;52.552;13.436;2024-03-23T13:27:04;99906.25;;;7.66;100.00
18985;BME280;9626;52.552;13.436;2024-03-23T13:29:33;99897.50;;;8.48;100.00
18985;BME280;9626;52.552;13.436;2024-03-23T13:32:01;99902.44;;;8.62;100.00
18985;BME280;9626;52.552;13.436;2024-03-23T13:34:27;99895.03;;;8.76;100.00
18985;BME280;9626;52.552;13.436;2024-03-23T13:36:55;99889.50;;;9.22;100.00
18985;BME280;9626;52.552;13.436;2024-03-23T13:39:24;99888.31;;;9.32;100.00
18985;BME280;9626;52.552;13.436;2024-03-23T13:41:50;99890.81;;;9.38;100.00
18985;BME280;9626;52.552;13.436;2024-03-23T13:44:16;99871.84;;;10.15;100.00
18985;BME280;9626;52.552;13.436;2024-03-23T13:46:44;99868.53;;;10.65;100.00
18985;BME280;9626;52.552;13.436;2024-03-23T13:49:28;99893.81;;;9.24;100.00
18985;BME280;9626;52.552;13.436;2024-03-23T13:51:55;99900.13;;;9.19;100.00
18985;BME280;9626;52.552;13.436;2024-03-23T13:54:24;99895.53;;;8.56;100.00
18985;BME280;9626;52.552;13.436;2024-03-23T13:56:52;99900.75;;;8.19;100.00
18985;BME280;9626;52.552;13.436;2024-03-23T13:59:22;99894.38;;;8.29;100.00
18985;BME280;9626;52.552;13.436;2024-03-23T14:01:50;99886.56;;;9.64;100.00
18985;BME280;9626;52.552;13.436;2024-03-23T14:04:19;99878.56;;;9.97;100.00